Flight Track Log - Related Links

Times and Time Zones

All times are in EST time to prevent confusion due to time zone crossing. See the N559LC flight status page for this flight to view local times or setup timezone preferences in your user account.

Time Position Orientation Groundspeed Altitude Reporting Facility
EST Latitude Longitude Course Direction KTS MPH feet Rate Location/Type
Sat 12:49:00 AM 34.7010 -89.2257 30° Northeast  Level Estimated
Sat 12:49:08 AM 35.0250 -89.4978 30° Northeast 471 542 24,200  Level Memphis Center
Sat 12:50:00 AM 34.7378 -89.2002 30° Northeast  Level Estimated
Sat 12:50:08 AM 35.1394 -89.4100 32° Northeast 481 554 26,300  Level Memphis Center
Sat 12:51:00 AM 34.7747 -89.1746 30° Northeast  Level Estimated
Sat 12:51:09 AM 35.2589 -89.3183 32° Northeast 497 572 28,200  Level Memphis Center
Sat 12:52:00 AM 34.8116 -89.1489 30° Northeast  Level Estimated
Sat 12:52:09 AM 35.3836 -89.2239 32° Northeast 516 594 30,200  Level Memphis Center
Sat 12:53:00 AM 34.8485 -89.1232 30° Northeast  Level Estimated
Sat 12:53:10 AM 35.5064 -89.1283 32° Northeast 523 602 32,800  Level Memphis Center
Sat 12:54:00 AM 34.8853 -89.0975 30° Northeast  Level Estimated
Sat 12:54:11 AM 35.6286 -89.0342 32° Northeast 521 600 35,400  Level Memphis Center
Sat 12:55:11 AM 35.7481 -88.9425 32° Northeast 514 592 37,000 1,785 Climbing Memphis Center
Sat 12:56:12 AM 35.8672 -88.8486 33° Northeast 512 589 39,000 1,686 Climbing Memphis Center
Sat 12:57:12 AM 35.9853 -88.7575 32° Northeast 507 583 40,400 992 Climbing Memphis Center
Sat 12:58:13 AM 36.1028 -88.6661 32° Northeast 503 579 41,000 298 Climbing Memphis Center
Sat 12:59:13 AM 36.2239 -88.5711 32° Northeast 511 588 41,000  Level Memphis Center
Sat 01:00:13 AM 36.3475 -88.4736 32° Northeast 522 601 41,000  Level Memphis Center
Sat 01:01:14 AM 36.4725 -88.3744 33° Northeast 531 611 41,000  Level Memphis Center
Sat 01:02:14 AM 36.5975 -88.2769 32° Northeast 531 611 41,000  Level Memphis Center
Sat 01:03:15 AM 36.7211 -88.1772 33° Northeast 532 612 41,000  Level Memphis Center
Sat 01:04:15 AM 36.8694 -88.0586 33° Northeast 532 612 41,000  Level Memphis Center
Sat 01:05:16 AM 36.9750 -87.9739 33° Northeast 533 613 41,000  Level Memphis Center
Sat 01:06:16 AM 37.1022 -87.8717 33° Northeast 534 615 41,000  Level Memphis Center
Sat 01:07:17 AM 37.2278 -87.7692 33° Northeast 533 613 41,000  Level Memphis Center
Sat 01:08:17 AM 37.3556 -87.6656 33° Northeast 538 619 41,000  Level Memphis Center
Sat 01:09:17 AM 37.4819 -87.5614 33° Northeast 537 618 41,000  Level Memphis Center
Sat 01:10:18 AM 37.6092 -87.4578 33° Northeast 538 619 41,000  Level Memphis Center
Sat 01:11:18 AM 37.7333 -87.3539 33° Northeast 533 613 41,000  Level Memphis Center
Sat 01:12:28 AM 37.8808 -87.2325 33° Northeast 532 612 41,000  Level Indianapolis Center
Sat 01:13:28 AM 38.0044 -87.1306 33° Northeast 532 612 41,000  Level Indianapolis Center
Sat 01:14:29 AM 38.1278 -87.0275 33° Northeast 532 612 41,000  Level Indianapolis Center
Sat 01:15:29 AM 38.2486 -86.9267 33° Northeast 532 612 41,000  Level Indianapolis Center
Sat 01:16:29 AM 38.3694 -86.8247 33° Northeast 532 612 41,000  Level Indianapolis Center
Sat 01:17:30 AM 38.4925 -86.7200 34° Northeast 532 612 41,000  Level Indianapolis Center
Sat 01:18:30 AM 38.6178 -86.6147 33° Northeast 534 615 41,000  Level Indianapolis Center
Sat 01:19:30 AM 38.7439 -86.5075 34° Northeast 539 620 41,000  Level Indianapolis Center
Sat 01:20:31 AM 38.8869 -86.3836 34° Northeast 540 621 41,000  Level Indianapolis Center
Sat 01:21:31 AM 39.0092 -86.2789 34° Northeast 537 618 41,000  Level Indianapolis Center
Sat 01:22:31 AM 39.1317 -86.1731 34° Northeast 536 617 41,000  Level Indianapolis Center
Sat 01:23:32 AM 39.2533 -86.0681 34° Northeast 535 616 41,000  Level Indianapolis Center
Sat 01:24:32 AM 39.3744 -85.9639 34° Northeast 533 613 41,000  Level Indianapolis Center
Sat 01:25:32 AM 39.4944 -85.8581 34° Northeast 533 613 41,000  Level Indianapolis Center
Sat 01:26:33 AM 39.6136 -85.7542 34° Northeast 529 609 41,000  Level Indianapolis Center
Sat 01:27:33 AM 39.7319 -85.6489 34° Northeast 527 606 41,000  Level Indianapolis Center
Sat 01:28:33 AM 39.8508 -85.5439 34° Northeast 525 604 41,000  Level Indianapolis Center
Sat 01:29:34 AM 39.9708 -85.4381 34° Northeast 525 604 41,000  Level Indianapolis Center
Sat 01:30:22 AM 40.0675 -85.3517 34° Northeast 525 604 41,000 -722 Level Indianapolis Center
Sat 01:31:22 AM 40.1883 -85.2433 34° Northeast 526 605 39,700 -1,587 Descending Indianapolis Center
Sat 01:32:23 AM 40.3086 -85.1344 35° Northeast 527 606 37,800 -1,884 Descending Indianapolis Center
Sat 01:33:23 AM 40.4331 -85.0222 34° Northeast 537 618 35,900 -2,000 Descending Indianapolis Center
Sat 01:34:23 AM 40.5772 -84.8942 34° Northeast 546 628 33,800 -2,033 Descending Indianapolis Center
Sat 01:35:24 AM 40.7042 -84.7789 35° Northeast 551 634 31,800 -1,934 Descending Indianapolis Center
Sat 01:36:24 AM 40.8342 -84.6631 34° Northeast 559 643 29,900 -2,050 Descending Indianapolis Center
Sat 01:37:24 AM 40.9614 -84.5467 35° Northeast 559 643 27,700 -2,250 Descending Indianapolis Center
Sat 01:38:24 AM 41.0850 -84.4322 35° Northeast 549 632 25,400 -2,380 Descending Indianapolis Center
Sat 01:39:25 AM 41.2011 -84.3267 34° Northeast 519 597 22,900 -2,419 Descending Indianapolis Center
Sat 01:40:33 AM 41.3175 -84.2186 35° Northeast 487 560 20,200 -2,376 Descending Cleveland Center
Sat 01:41:06 AM 41.3728 -84.1694 34° Northeast 468 539 18,900 -2,700 Descending Cleveland Center
Sat 01:41:13 AM 41.3933 -84.1503 35° Northeast 463 533 18,400 -3,556 Descending Cleveland Center
Sat 01:41:33 AM 41.4356 -84.1108 35° Northeast 466 536 17,300 -2,800 Descending Cleveland Center
Sat 01:42:13 AM 41.5025 -84.0497 34° Northeast 452 520 15,600 -2,500 Descending Cleveland Center
Sat 01:42:33 AM 41.5372 -84.0156 36° Northeast 451 519 14,800 -2,459 Descending Cleveland Center
Sat 01:43:14 AM 41.6028 -83.9558 34° Northeast 433 498 13,100 -2,500 Descending Cleveland Center
Sat 01:43:33 AM 41.6356 -83.9242 36° Northeast 436 502 12,300 -2,100 Descending Cleveland Center
Sat 01:44:14 AM 41.7006 -83.8642 35° Northeast 421 484 11,000 -1,279 Descending Cleveland Center
Sat 01:44:34 AM 41.7300 -83.8358 36° Northeast 419 482 11,000 -98 Level Cleveland Center
Sat 01:45:15 AM 41.7914 -83.7794 34° Northeast 408 470 10,900  Descending Cleveland Center
Sat 01:45:34 AM 41.8228 -83.7492 36° Northeast 410 472 11,000 -900 Climbing Cleveland Center
Sat 01:46:15 AM 41.8978 -83.7108 21° North 390 449 10,000 -1,000 Descending Cleveland Center
Sat 01:46:34 AM 41.9250 -83.6967 21° North 392 451 10,000 -98 Level Cleveland Center
Sat 01:47:16 AM 42.0006 -83.6586 21° North 396 456 9,900  Descending Cleveland Center
Sat 01:47:34 AM 42.0278 -83.6425 24° Northeast 393 452 10,000  Climbing Cleveland Center
Sat 01:48:17 AM 42.1056 -83.6033 20° North 397 457 9,900  Descending Cleveland Center
Sat 01:48:35 AM 42.1292 -83.5850 30° Northeast 395 455 10,000  Climbing Cleveland Center
Sat 01:49:17 AM 42.1931 -83.5317 32° Northeast 346 398 9,900 -200 Descending Cleveland Center
Sat 01:49:35 AM 42.2131 -83.5161 30° Northeast 371 427 9,800 -1,082 Descending Cleveland Center
Sat 01:50:18 AM 42.2653 -83.4686 34° Northeast 285 328 8,800 -1,200 Descending Cleveland Center
Sat 01:50:35 AM 42.2811 -83.4542 34° Northeast 307 353 8,600 -1,377 Descending Cleveland Center
Sat 01:51:19 AM 42.3283 -83.4097 35° Northeast 268 308 7,400 -1,500 Descending Cleveland Center
Sat 01:51:35 AM 42.3431 -83.3981 30° Northeast 273 314 7,100 -1,818 Descending Cleveland Center
Sat 01:52:25 AM 42.3956 -83.3572 30° Northeast 248 285 5,400 -1,800 Descending Cleveland Center
Sat 01:52:35 AM 42.4033 -83.3486 39° Northeast 258 297 5,300 -1,521 Descending Cleveland Center
Sat 01:53:36 AM 42.4042 -83.2800 89° East 246 283 3,600 -1,358 Descending Cleveland Center
Sat 01:54:21 AM 42.3622 -83.2733 173° South 143 165 2,900 -600 Descending Cleveland Center
Sat 01:54:36 AM 42.3594 -83.2719 160° South 171 197 3,000  Climbing Cleveland Center
Sat 01:55:21 AM 42.3294 -83.2886 202° Southwest 123 142 2,900  Descending Cleveland Center
Sat 01:55:36 AM 42.3283 -83.2903 228° Southwest 130 150 3,000 -590 Climbing Cleveland Center
Sat 01:56:22 AM 42.3003 -83.3128 211° Southwest 126 145 2,300 -700 Descending Cleveland Center
Sat 01:56:36 AM 42.2978 -83.3136 194° South 128 147 2,300 -700 Level Cleveland Center
Sat 01:57:22 AM 42.2692 -83.3367 211° Southwest 127 146 1,600 -689 Descending Cleveland Center
Sat 01:57:37 AM 42.2667 -83.3358 166° South 127 146 1,600 -590 Level Cleveland Center
Sat 01:58:23 AM 42.2406 -83.3550 209° Southwest 113 130 1,000 -600 Descending Cleveland Center
Sat 01:58:37 AM 42.2383 -83.3561 200° South 121 139 1,000  Level Cleveland Center

Login

Don't have an account? Register now (free) for customized features, flight alerts, and more!